sensor_id;sensor_type;location;lat;lon;timestamp;P1;durP1;ratioP1;P2;durP2;ratioP2
21012;SDS011;10664;53.582;9.712;2022-09-21T00:00:48;2.90;;;2.07;;
21012;SDS011;10664;53.582;9.712;2022-09-21T00:03:14;3.10;;;2.20;;
21012;SDS011;10664;53.582;9.712;2022-09-21T00:05:41;2.37;;;2.10;;
21012;SDS011;10664;53.582;9.712;2022-09-21T00:08:07;2.80;;;2.07;;
21012;SDS011;10664;53.582;9.712;2022-09-21T00:10:35;3.43;;;2.10;;
21012;SDS011;10664;53.582;9.712;2022-09-21T00:13:01;3.10;;;2.10;;
21012;SDS011;10664;53.582;9.712;2022-09-21T00:15:27;3.20;;;2.23;;
21012;SDS011;10664;53.582;9.712;2022-09-21T00:17:54;2.87;;;2.27;;
21012;SDS011;10664;53.582;9.712;2022-09-21T00:20:21;2.40;;;2.10;;
21012;SDS011;10664;53.582;9.712;2022-09-21T00:22:48;2.40;;;2.20;;
21012;SDS011;10664;53.582;9.712;2022-09-21T00:25:14;2.80;;;2.20;;
21012;SDS011;10664;53.582;9.712;2022-09-21T00:27:40;2.67;;;2.00;;
21012;SDS011;10664;53.582;9.712;2022-09-21T00:30:06;3.23;;;2.00;;
21012;SDS011;10664;53.582;9.712;2022-09-21T00:32:34;3.33;;;2.23;;
21012;SDS011;10664;53.582;9.712;2022-09-21T00:35:00;3.33;;;2.40;;
21012;SDS011;10664;53.582;9.712;2022-09-21T00:37:30;2.10;;;1.90;;
21012;SDS011;10664;53.582;9.712;2022-09-21T00:39:56;3.80;;;2.20;;
21012;SDS011;10664;53.582;9.712;2022-09-21T00:42:27;2.63;;;2.30;;
21012;SDS011;10664;53.582;9.712;2022-09-21T00:44:53;2.00;;;1.77;;
21012;SDS011;10664;53.582;9.712;2022-09-21T00:47:33;3.47;;;2.27;;
21012;SDS011;10664;53.582;9.712;2022-09-21T00:50:01;3.13;;;2.33;;
21012;SDS011;10664;53.582;9.712;2022-09-21T00:52:29;3.43;;;2.10;;
21012;SDS011;10664;53.582;9.712;2022-09-21T00:54:59;3.97;;;2.27;;
21012;SDS011;10664;53.582;9.712;2022-09-21T00:57:28;2.63;;;2.30;;
21012;SDS011;10664;53.582;9.712;2022-09-21T00:59:57;3.03;;;2.03;;
21012;SDS011;10664;53.582;9.712;2022-09-21T01:02:25;3.57;;;2.60;;
21012;SDS011;10664;53.582;9.712;2022-09-21T01:07:21;2.80;;;2.30;;
21012;SDS011;10664;53.582;9.712;2022-09-21T01:09:48;3.67;;;2.33;;
21012;SDS011;10664;53.582;9.712;2022-09-21T01:17:44;3.30;;;2.33;;
21012;SDS011;10664;53.582;9.712;2022-09-21T01:25:09;2.63;;;1.73;;
21012;SDS011;10664;53.582;9.712;2022-09-21T01:30:11;4.30;;;2.50;;
21012;SDS011;10664;53.582;9.712;2022-09-21T01:32:45;3.67;;;2.80;;
21012;SDS011;10664;53.582;9.712;2022-09-21T01:35:17;5.70;;;2.97;;
21012;SDS011;10664;53.582;9.712;2022-09-21T01:37:50;5.20;;;2.90;;
21012;SDS011;10664;53.582;9.712;2022-09-21T01:40:20;4.20;;;3.10;;
21012;SDS011;10664;53.582;9.712;2022-09-21T01:42:49;3.77;;;2.60;;
21012;SDS011;10664;53.582;9.712;2022-09-21T01:45:17;5.10;;;3.20;;
21012;SDS011;10664;53.582;9.712;2022-09-21T01:47:46;4.93;;;2.80;;
21012;SDS011;10664;53.582;9.712;2022-09-21T01:50:13;5.30;;;3.07;;
21012;SDS011;10664;53.582;9.712;2022-09-21T01:52:42;4.03;;;2.90;;
21012;SDS011;10664;53.582;9.712;2022-09-21T01:55:21;4.00;;;2.57;;
21012;SDS011;10664;53.582;9.712;2022-09-21T01:57:54;3.80;;;2.67;;
21012;SDS011;10664;53.582;9.712;2022-09-21T02:00:21;3.27;;;2.70;;
21012;SDS011;10664;53.582;9.712;2022-09-21T02:02:48;4.77;;;2.70;;
21012;SDS011;10664;53.582;9.712;2022-09-21T02:05:15;3.73;;;2.80;;
21012;SDS011;10664;53.582;9.712;2022-09-21T02:07:42;3.43;;;2.67;;
21012;SDS011;10664;53.582;9.712;2022-09-21T02:10:09;4.27;;;2.50;;
21012;SDS011;10664;53.582;9.712;2022-09-21T02:12:38;3.50;;;2.60;;
21012;SDS011;10664;53.582;9.712;2022-09-21T02:15:04;3.13;;;2.60;;
21012;SDS011;10664;53.582;9.712;2022-09-21T02:17:41;3.53;;;2.60;;
21012;SDS011;10664;53.582;9.712;2022-09-21T02:23:11;4.23;;;2.60;;
21012;SDS011;10664;53.582;9.712;2022-09-21T02:25:43;4.13;;;2.40;;
21012;SDS011;10664;53.582;9.712;2022-09-21T02:28:15;4.43;;;2.70;;
21012;SDS011;10664;53.582;9.712;2022-09-21T02:30:47;3.70;;;2.67;;
21012;SDS011;10664;53.582;9.712;2022-09-21T02:33:25;2.93;;;2.57;;
21012;SDS011;10664;53.582;9.712;2022-09-21T02:38:43;3.87;;;2.57;;
21012;SDS011;10664;53.582;9.712;2022-09-21T02:41:15;2.90;;;2.53;;
21012;SDS011;10664;53.582;9.712;2022-09-21T02:43:46;3.37;;;2.63;;
21012;SDS011;10664;53.582;9.712;2022-09-21T02:46:16;3.30;;;2.63;;
21012;SDS011;10664;53.582;9.712;2022-09-21T02:48:47;5.00;;;2.60;;
21012;SDS011;10664;53.582;9.712;2022-09-21T02:51:20;3.40;;;3.03;;
21012;SDS011;10664;53.582;9.712;2022-09-21T02:53:46;3.63;;;2.83;;
21012;SDS011;10664;53.582;9.712;2022-09-21T02:56:14;3.47;;;2.50;;
21012;SDS011;10664;53.582;9.712;2022-09-21T02:58:42;3.80;;;2.70;;
21012;SDS011;10664;53.582;9.712;2022-09-21T03:01:10;3.93;;;2.93;;
21012;SDS011;10664;53.582;9.712;2022-09-21T03:03:36;3.50;;;2.70;;
21012;SDS011;10664;53.582;9.712;2022-09-21T03:06:02;3.87;;;2.60;;
21012;SDS011;10664;53.582;9.712;2022-09-21T03:08:28;3.90;;;2.77;;
21012;SDS011;10664;53.582;9.712;2022-09-21T03:10:54;3.30;;;2.50;;
21012;SDS011;10664;53.582;9.712;2022-09-21T03:13:21;3.63;;;2.80;;
21012;SDS011;10664;53.582;9.712;2022-09-21T03:15:47;3.67;;;2.70;;
21012;SDS011;10664;53.582;9.712;2022-09-21T03:18:13;4.00;;;3.00;;
21012;SDS011;10664;53.582;9.712;2022-09-21T03:20:41;4.60;;;3.00;;
21012;SDS011;10664;53.582;9.712;2022-09-21T03:23:09;3.97;;;2.77;;
21012;SDS011;10664;53.582;9.712;2022-09-21T03:25:35;3.93;;;3.10;;
21012;SDS011;10664;53.582;9.712;2022-09-21T03:28:02;3.27;;;2.73;;
21012;SDS011;10664;53.582;9.712;2022-09-21T03:30:28;3.87;;;2.53;;
21012;SDS011;10664;53.582;9.712;2022-09-21T03:32:55;3.77;;;2.57;;
21012;SDS011;10664;53.582;9.712;2022-09-21T03:35:22;3.23;;;2.53;;
21012;SDS011;10664;53.582;9.712;2022-09-21T03:37:50;2.70;;;2.33;;
21012;SDS011;10664;53.582;9.712;2022-09-21T03:40:16;3.93;;;2.80;;
21012;SDS011;10664;53.582;9.712;2022-09-21T03:42:43;4.80;;;2.73;;
21012;SDS011;10664;53.582;9.712;2022-09-21T03:45:10;3.00;;;2.43;;
21012;SDS011;10664;53.582;9.712;2022-09-21T03:47:36;3.20;;;2.90;;
21012;SDS011;10664;53.582;9.712;2022-09-21T03:50:03;3.57;;;2.70;;
21012;SDS011;10664;53.582;9.712;2022-09-21T03:52:29;3.17;;;2.43;;
21012;SDS011;10664;53.582;9.712;2022-09-21T03:54:55;4.13;;;2.77;;
21012;SDS011;10664;53.582;9.712;2022-09-21T03:57:22;3.60;;;2.70;;
21012;SDS011;10664;53.582;9.712;2022-09-21T03:59:48;5.83;;;3.57;;
21012;SDS011;10664;53.582;9.712;2022-09-21T04:02:14;4.70;;;3.47;;
21012;SDS011;10664;53.582;9.712;2022-09-21T04:04:40;5.10;;;3.23;;
21012;SDS011;10664;53.582;9.712;2022-09-21T04:07:06;4.50;;;3.63;;
21012;SDS011;10664;53.582;9.712;2022-09-21T04:09:32;5.90;;;3.60;;
21012;SDS011;10664;53.582;9.712;2022-09-21T04:11:58;4.33;;;3.27;;
21012;SDS011;10664;53.582;9.712;2022-09-21T04:14:24;5.87;;;3.70;;
21012;SDS011;10664;53.582;9.712;2022-09-21T04:16:51;4.70;;;3.57;;
21012;SDS011;10664;53.582;9.712;2022-09-21T04:19:17;5.60;;;3.57;;
21012;SDS011;10664;53.582;9.712;2022-09-21T04:21:43;6.50;;;3.80;;
21012;SDS011;10664;53.582;9.712;2022-09-21T04:24:09;5.60;;;4.00;;
21012;SDS011;10664;53.582;9.712;2022-09-21T04:26:35;6.47;;;4.43;;
21012;SDS011;10664;53.582;9.712;2022-09-21T04:29:02;8.93;;;4.63;;
21012;SDS011;10664;53.582;9.712;2022-09-21T04:31:28;8.93;;;5.27;;
21012;SDS011;10664;53.582;9.712;2022-09-21T04:33:55;7.93;;;5.27;;
21012;SDS011;10664;53.582;9.712;2022-09-21T04:36:23;7.57;;;5.43;;
21012;SDS011;10664;53.582;9.712;2022-09-21T04:38:49;8.17;;;5.90;;
21012;SDS011;10664;53.582;9.712;2022-09-21T04:41:16;8.13;;;5.80;;
21012;SDS011;10664;53.582;9.712;2022-09-21T04:43:43;7.37;;;6.17;;
21012;SDS011;10664;53.582;9.712;2022-09-21T04:46:10;7.17;;;5.90;;
21012;SDS011;10664;53.582;9.712;2022-09-21T04:48:37;7.00;;;6.10;;
21012;SDS011;10664;53.582;9.712;2022-09-21T04:51:03;7.20;;;6.30;;
21012;SDS011;10664;53.582;9.712;2022-09-21T04:53:31;7.57;;;6.53;;
21012;SDS011;10664;53.582;9.712;2022-09-21T04:55:57;8.87;;;6.87;;
21012;SDS011;10664;53.582;9.712;2022-09-21T04:58:23;7.67;;;6.23;;
21012;SDS011;10664;53.582;9.712;2022-09-21T05:00:50;7.53;;;6.50;;
21012;SDS011;10664;53.582;9.712;2022-09-21T05:03:17;8.27;;;6.60;;
21012;SDS011;10664;53.582;9.712;2022-09-21T05:05:50;8.40;;;6.17;;
21012;SDS011;10664;53.582;9.712;2022-09-21T05:08:16;8.53;;;6.67;;
21012;SDS011;10664;53.582;9.712;2022-09-21T05:11:02;8.03;;;6.00;;
21012;SDS011;10664;53.582;9.712;2022-09-21T05:13:29;7.07;;;5.87;;
21012;SDS011;10664;53.582;9.712;2022-09-21T05:15:55;8.30;;;6.57;;
21012;SDS011;10664;53.582;9.712;2022-09-21T05:18:21;7.37;;;5.53;;
21012;SDS011;10664;53.582;9.712;2022-09-21T05:20:56;7.50;;;5.63;;
21012;SDS011;10664;53.582;9.712;2022-09-21T05:23:23;6.77;;;5.73;;
21012;SDS011;10664;53.582;9.712;2022-09-21T05:25:49;5.90;;;5.30;;
21012;SDS011;10664;53.582;9.712;2022-09-21T05:28:15;5.00;;;4.50;;
21012;SDS011;10664;53.582;9.712;2022-09-21T05:30:43;5.90;;;4.93;;
21012;SDS011;10664;53.582;9.712;2022-09-21T05:33:09;5.90;;;5.30;;
21012;SDS011;10664;53.582;9.712;2022-09-21T05:35:41;5.33;;;4.83;;
21012;SDS011;10664;53.582;9.712;2022-09-21T05:38:16;5.57;;;5.03;;
21012;SDS011;10664;53.582;9.712;2022-09-21T05:40:43;5.37;;;4.90;;
21012;SDS011;10664;53.582;9.712;2022-09-21T05:43:09;5.27;;;4.77;;
21012;SDS011;10664;53.582;9.712;2022-09-21T05:45:36;5.60;;;5.00;;
21012;SDS011;10664;53.582;9.712;2022-09-21T05:48:12;6.17;;;5.60;;
21012;SDS011;10664;53.582;9.712;2022-09-21T05:50:54;5.70;;;5.20;;
21012;SDS011;10664;53.582;9.712;2022-09-21T06:03:42;5.37;;;4.90;;
21012;SDS011;10664;53.582;9.712;2022-09-21T06:06:08;5.40;;;5.00;;
21012;SDS011;10664;53.582;9.712;2022-09-21T06:08:34;5.07;;;4.67;;
21012;SDS011;10664;53.582;9.712;2022-09-21T06:11:00;5.57;;;5.07;;
21012;SDS011;10664;53.582;9.712;2022-09-21T06:13:26;5.70;;;4.90;;
21012;SDS011;10664;53.582;9.712;2022-09-21T06:15:52;5.70;;;5.17;;
21012;SDS011;10664;53.582;9.712;2022-09-21T06:18:18;5.60;;;4.90;;
21012;SDS011;10664;53.582;9.712;2022-09-21T06:20:44;7.63;;;5.17;;
21012;SDS011;10664;53.582;9.712;2022-09-21T06:23:11;6.53;;;5.20;;
21012;SDS011;10664;53.582;9.712;2022-09-21T06:25:37;6.07;;;5.00;;
21012;SDS011;10664;53.582;9.712;2022-09-21T06:28:12;5.63;;;4.43;;
21012;SDS011;10664;53.582;9.712;2022-09-21T06:30:38;4.23;;;3.93;;
21012;SDS011;10664;53.582;9.712;2022-09-21T06:33:06;4.53;;;3.97;;
21012;SDS011;10664;53.582;9.712;2022-09-21T06:35:33;4.87;;;3.83;;
21012;SDS011;10664;53.582;9.712;2022-09-21T06:38:00;3.90;;;3.60;;
21012;SDS011;10664;53.582;9.712;2022-09-21T06:40:26;3.97;;;3.60;;
21012;SDS011;10664;53.582;9.712;2022-09-21T06:42:56;3.87;;;3.57;;
21012;SDS011;10664;53.582;9.712;2022-09-21T06:45:22;3.93;;;3.53;;
21012;SDS011;10664;53.582;9.712;2022-09-21T06:47:48;4.10;;;3.70;;
21012;SDS011;10664;53.582;9.712;2022-09-21T06:50:14;4.23;;;3.30;;
21012;SDS011;10664;53.582;9.712;2022-09-21T06:52:40;4.67;;;3.90;;
21012;SDS011;10664;53.582;9.712;2022-09-21T06:55:07;4.13;;;3.73;;
21012;SDS011;10664;53.582;9.712;2022-09-21T06:57:35;5.33;;;3.73;;
21012;SDS011;10664;53.582;9.712;2022-09-21T07:00:04;4.33;;;3.67;;
21012;SDS011;10664;53.582;9.712;2022-09-21T07:02:31;4.60;;;4.00;;
21012;SDS011;10664;53.582;9.712;2022-09-21T07:04:57;4.43;;;3.50;;
21012;SDS011;10664;53.582;9.712;2022-09-21T07:07:23;4.07;;;3.70;;
21012;SDS011;10664;53.582;9.712;2022-09-21T07:09:49;4.80;;;4.20;;
21012;SDS011;10664;53.582;9.712;2022-09-21T07:12:15;4.20;;;3.70;;
21012;SDS011;10664;53.582;9.712;2022-09-21T07:14:41;5.03;;;4.20;;
21012;SDS011;10664;53.582;9.712;2022-09-21T07:17:10;5.57;;;4.67;;
21012;SDS011;10664;53.582;9.712;2022-09-21T07:19:37;5.30;;;4.80;;
21012;SDS011;10664;53.582;9.712;2022-09-21T07:22:03;5.30;;;4.77;;
21012;SDS011;10664;53.582;9.712;2022-09-21T07:24:29;5.30;;;4.80;;
21012;SDS011;10664;53.582;9.712;2022-09-21T07:26:55;6.20;;;5.60;;
21012;SDS011;10664;53.582;9.712;2022-09-21T07:29:22;6.17;;;5.67;;
21012;SDS011;10664;53.582;9.712;2022-09-21T07:31:48;6.53;;;5.90;;
21012;SDS011;10664;53.582;9.712;2022-09-21T07:34:14;5.97;;;5.30;;
21012;SDS011;10664;53.582;9.712;2022-09-21T07:36:40;5.90;;;5.30;;
21012;SDS011;10664;53.582;9.712;2022-09-21T07:39:07;6.10;;;5.50;;
21012;SDS011;10664;53.582;9.712;2022-09-21T07:41:33;6.47;;;5.60;;
21012;SDS011;10664;53.582;9.712;2022-09-21T07:43:59;6.80;;;6.10;;
21012;SDS011;10664;53.582;9.712;2022-09-21T07:46:25;9.33;;;6.80;;
21012;SDS011;10664;53.582;9.712;2022-09-21T07:48:55;7.47;;;6.77;;
21012;SDS011;10664;53.582;9.712;2022-09-21T07:51:21;8.57;;;7.73;;
21012;SDS011;10664;53.582;9.712;2022-09-21T07:53:48;9.33;;;8.43;;
21012;SDS011;10664;53.582;9.712;2022-09-21T07:56:18;10.97;;;9.70;;
21012;SDS011;10664;53.582;9.712;2022-09-21T07:58:44;10.50;;;9.50;;
21012;SDS011;10664;53.582;9.712;2022-09-21T08:01:29;12.23;;;10.60;;
21012;SDS011;10664;53.582;9.712;2022-09-21T08:03:55;12.37;;;10.93;;
21012;SDS011;10664;53.582;9.712;2022-09-21T08:06:22;11.97;;;10.70;;
21012;SDS011;10664;53.582;9.712;2022-09-21T08:08:49;12.70;;;11.40;;
21012;SDS011;10664;53.582;9.712;2022-09-21T08:11:15;13.17;;;11.37;;
21012;SDS011;10664;53.582;9.712;2022-09-21T08:13:41;14.10;;;12.30;;
21012;SDS011;10664;53.582;9.712;2022-09-21T08:16:07;15.43;;;12.37;;
21012;SDS011;10664;53.582;9.712;2022-09-21T08:18:37;13.60;;;11.57;;
21012;SDS011;10664;53.582;9.712;2022-09-21T08:21:03;16.43;;;12.63;;
21012;SDS011;10664;53.582;9.712;2022-09-21T08:23:30;15.37;;;12.23;;
21012;SDS011;10664;53.582;9.712;2022-09-21T08:26:03;13.90;;;11.77;;
21012;SDS011;10664;53.582;9.712;2022-09-21T08:28:33;13.40;;;11.17;;
21012;SDS011;10664;53.582;9.712;2022-09-21T08:31:03;12.00;;;10.73;;
21012;SDS011;10664;53.582;9.712;2022-09-21T08:33:30;12.73;;;10.57;;
21012;SDS011;10664;53.582;9.712;2022-09-21T08:35:57;12.90;;;10.77;;
21012;SDS011;10664;53.582;9.712;2022-09-21T08:38:24;11.70;;;10.50;;
21012;SDS011;10664;53.582;9.712;2022-09-21T08:40:50;11.60;;;10.10;;
21012;SDS011;10664;53.582;9.712;2022-09-21T08:46:05;9.93;;;8.40;;
21012;SDS011;10664;53.582;9.712;2022-09-21T08:48:32;9.90;;;8.70;;
21012;SDS011;10664;53.582;9.712;2022-09-21T08:51:04;9.03;;;8.03;;
21012;SDS011;10664;53.582;9.712;2022-09-21T08:53:32;8.73;;;7.73;;
21012;SDS011;10664;53.582;9.712;2022-09-21T08:55:59;8.27;;;7.10;;
21012;SDS011;10664;53.582;9.712;2022-09-21T08:58:27;7.50;;;6.80;;
21012;SDS011;10664;53.582;9.712;2022-09-21T09:06:03;6.30;;;5.70;;
21012;SDS011;10664;53.582;9.712;2022-09-21T09:08:37;6.50;;;5.90;;
21012;SDS011;10664;53.582;9.712;2022-09-21T09:18:48;5.27;;;4.77;;
21012;SDS011;10664;53.582;9.712;2022-09-21T09:21:20;5.60;;;5.10;;
21012;SDS011;10664;53.582;9.712;2022-09-21T09:23:48;4.80;;;4.30;;
21012;SDS011;10664;53.582;9.712;2022-09-21T09:26:17;4.33;;;3.93;;
21012;SDS011;10664;53.582;9.712;2022-09-21T09:28:50;4.90;;;4.40;;
21012;SDS011;10664;53.582;9.712;2022-09-21T09:31:19;4.40;;;4.00;;
21012;SDS011;10664;53.582;9.712;2022-09-21T09:33:54;4.73;;;3.77;;
21012;SDS011;10664;53.582;9.712;2022-09-21T09:36:24;4.80;;;3.87;;
21012;SDS011;10664;53.582;9.712;2022-09-21T09:38:56;4.80;;;3.97;;
21012;SDS011;10664;53.582;9.712;2022-09-21T09:49:26;4.03;;;3.50;;
21012;SDS011;10664;53.582;9.712;2022-09-21T09:51:56;3.80;;;3.40;;
21012;SDS011;10664;53.582;9.712;2022-09-21T09:54:23;3.47;;;3.17;;
21012;SDS011;10664;53.582;9.712;2022-09-21T09:56:51;3.17;;;2.67;;
21012;SDS011;10664;53.582;9.712;2022-09-21T09:59:22;3.90;;;2.93;;
21012;SDS011;10664;53.582;9.712;2022-09-21T10:01:57;3.00;;;2.70;;
21012;SDS011;10664;53.582;9.712;2022-09-21T10:04:24;3.00;;;2.50;;
21012;SDS011;10664;53.582;9.712;2022-09-21T10:06:50;2.50;;;2.20;;
21012;SDS011;10664;53.582;9.712;2022-09-21T10:09:17;2.80;;;2.50;;
21012;SDS011;10664;53.582;9.712;2022-09-21T10:11:44;3.53;;;2.50;;
21012;SDS011;10664;53.582;9.712;2022-09-21T10:14:13;3.00;;;2.30;;
21012;SDS011;10664;53.582;9.712;2022-09-21T10:16:41;3.93;;;2.53;;
21012;SDS011;10664;53.582;9.712;2022-09-21T10:19:16;3.13;;;2.47;;
21012;SDS011;10664;53.582;9.712;2022-09-21T10:21:42;3.00;;;2.50;;
21012;SDS011;10664;53.582;9.712;2022-09-21T10:24:30;3.50;;;2.40;;
21012;SDS011;10664;53.582;9.712;2022-09-21T10:27:05;3.80;;;2.50;;
21012;SDS011;10664;53.582;9.712;2022-09-21T10:29:38;2.57;;;2.37;;
21012;SDS011;10664;53.582;9.712;2022-09-21T10:32:17;2.50;;;2.10;;
21012;SDS011;10664;53.582;9.712;2022-09-21T10:39:53;2.20;;;2.00;;
21012;SDS011;10664;53.582;9.712;2022-09-21T10:42:21;2.30;;;2.10;;
21012;SDS011;10664;53.582;9.712;2022-09-21T10:45:03;2.30;;;2.10;;
21012;SDS011;10664;53.582;9.712;2022-09-21T10:49:56;2.43;;;1.97;;
21012;SDS011;10664;53.582;9.712;2022-09-21T10:52:24;2.60;;;2.17;;
21012;SDS011;10664;53.582;9.712;2022-09-21T10:54:56;1.97;;;1.77;;
21012;SDS011;10664;53.582;9.712;2022-09-21T10:57:22;2.10;;;1.90;;
21012;SDS011;10664;53.582;9.712;2022-09-21T10:59:49;2.27;;;2.03;;
21012;SDS011;10664;53.582;9.712;2022-09-21T11:04:59;2.22;;;1.80;;
21012;SDS011;10664;53.582;9.712;2022-09-21T11:07:27;2.07;;;1.60;;
21012;SDS011;10664;53.582;9.712;2022-09-21T11:09:57;2.03;;;1.80;;
21012;SDS011;10664;53.582;9.712;2022-09-21T11:12:59;1.70;;;1.60;;
21012;SDS011;10664;53.582;9.712;2022-09-21T11:15:29;1.73;;;1.60;;
21012;SDS011;10664;53.582;9.712;2022-09-21T11:18:00;2.13;;;1.80;;
21012;SDS011;10664;53.582;9.712;2022-09-21T11:20:29;1.67;;;1.50;;
21012;SDS011;10664;53.582;9.712;2022-09-21T11:23:02;2.07;;;1.80;;
21012;SDS011;10664;53.582;9.712;2022-09-21T11:25:44;1.50;;;1.40;;
21012;SDS011;10664;53.582;9.712;2022-09-21T11:30:51;1.83;;;1.30;;
21012;SDS011;10664;53.582;9.712;2022-09-21T11:46:24;1.40;;;1.27;;
21012;SDS011;10664;53.582;9.712;2022-09-21T11:48:58;1.60;;;1.50;;
21012;SDS011;10664;53.582;9.712;2022-09-21T11:54:08;2.23;;;1.37;;
21012;SDS011;10664;53.582;9.712;2022-09-21T11:56:54;1.50;;;1.40;;
21012;SDS011;10664;53.582;9.712;2022-09-21T12:04:50;1.58;;;1.48;;
21012;SDS011;10664;53.582;9.712;2022-09-21T12:07:24;1.40;;;1.30;;
21012;SDS011;10664;53.582;9.712;2022-09-21T12:12:20;1.25;;;1.15;;
21012;SDS011;10664;53.582;9.712;2022-09-21T12:20:05;1.23;;;1.10;;
21012;SDS011;10664;53.582;9.712;2022-09-21T12:22:34;1.20;;;1.17;;
21012;SDS011;10664;53.582;9.712;2022-09-21T12:25:05;0.87;;;0.80;;
21012;SDS011;10664;53.582;9.712;2022-09-21T12:27:38;0.95;;;0.95;;
21012;SDS011;10664;53.582;9.712;2022-09-21T12:30:11;0.82;;;0.82;;
21012;SDS011;10664;53.582;9.712;2022-09-21T12:32:53;0.93;;;0.83;;
21012;SDS011;10664;53.582;9.712;2022-09-21T12:35:36;0.93;;;0.90;;
21012;SDS011;10664;53.582;9.712;2022-09-21T12:43:19;0.85;;;0.85;;
21012;SDS011;10664;53.582;9.712;2022-09-21T12:45:54;1.00;;;0.80;;
21012;SDS011;10664;53.582;9.712;2022-09-21T12:48:31;1.08;;;0.95;;
21012;SDS011;10664;53.582;9.712;2022-09-21T12:51:02;1.27;;;1.00;;
21012;SDS011;10664;53.582;9.712;2022-09-21T12:53:31;1.30;;;1.00;;
21012;SDS011;10664;53.582;9.712;2022-09-21T13:00:54;1.23;;;1.13;;
21012;SDS011;10664;53.582;9.712;2022-09-21T13:06:04;0.85;;;0.85;;
21012;SDS011;10664;53.582;9.712;2022-09-21T13:08:34;1.45;;;0.93;;
21012;SDS011;10664;53.582;9.712;2022-09-21T13:11:03;1.05;;;1.02;;
21012;SDS011;10664;53.582;9.712;2022-09-21T13:13:33;1.08;;;0.98;;
21012;SDS011;10664;53.582;9.712;2022-09-21T13:16:00;0.80;;;0.80;;
21012;SDS011;10664;53.582;9.712;2022-09-21T13:18:29;0.80;;;0.80;;
21012;SDS011;10664;53.582;9.712;2022-09-21T13:20:58;0.80;;;0.70;;
21012;SDS011;10664;53.582;9.712;2022-09-21T13:26:11;0.65;;;0.60;;
21012;SDS011;10664;53.582;9.712;2022-09-21T13:31:42;0.70;;;0.70;;
21012;SDS011;10664;53.582;9.712;2022-09-21T13:34:20;0.82;;;0.60;;
21012;SDS011;10664;53.582;9.712;2022-09-21T13:37:32;0.75;;;0.75;;
21012;SDS011;10664;53.582;9.712;2022-09-21T13:39:34;0.73;;;0.73;;
21012;SDS011;10664;53.582;9.712;2022-09-21T13:42:24;0.73;;;0.73;;
21012;SDS011;10664;53.582;9.712;2022-09-21T13:44:46;0.55;;;0.55;;
21012;SDS011;10664;53.582;9.712;2022-09-21T13:47:12;0.98;;;0.75;;
21012;SDS011;10664;53.582;9.712;2022-09-21T13:49:39;1.00;;;0.73;;
21012;SDS011;10664;53.582;9.712;2022-09-21T13:52:18;0.63;;;0.63;;
21012;SDS011;10664;53.582;9.712;2022-09-21T13:54:50;0.65;;;0.65;;
21012;SDS011;10664;53.582;9.712;2022-09-21T13:57:30;0.70;;;0.70;;
21012;SDS011;10664;53.582;9.712;2022-09-21T14:00:02;0.70;;;0.70;;
21012;SDS011;10664;53.582;9.712;2022-09-21T14:02:33;0.60;;;0.60;;
21012;SDS011;10664;53.582;9.712;2022-09-21T14:05:02;0.60;;;0.60;;
21012;SDS011;10664;53.582;9.712;2022-09-21T14:07:29;0.68;;;0.68;;
21012;SDS011;10664;53.582;9.712;2022-09-21T14:09:59;0.60;;;0.60;;
21012;SDS011;10664;53.582;9.712;2022-09-21T14:12:26;0.52;;;0.52;;
21012;SDS011;10664;53.582;9.712;2022-09-21T14:17:41;0.70;;;0.70;;
21012;SDS011;10664;53.582;9.712;2022-09-21T14:23:25;0.57;;;0.57;;
21012;SDS011;10664;53.582;9.712;2022-09-21T14:25:52;0.60;;;0.60;;
21012;SDS011;10664;53.582;9.712;2022-09-21T14:28:41;0.60;;;0.60;;
21012;SDS011;10664;53.582;9.712;2022-09-21T14:31:13;0.57;;;0.57;;
21012;SDS011;10664;53.582;9.712;2022-09-21T14:33:42;0.60;;;0.60;;
21012;SDS011;10664;53.582;9.712;2022-09-21T14:36:10;0.95;;;0.70;;
21012;SDS011;10664;53.582;9.712;2022-09-21T14:38:40;0.60;;;0.60;;
21012;SDS011;10664;53.582;9.712;2022-09-21T14:41:07;0.70;;;0.70;;
21012;SDS011;10664;53.582;9.712;2022-09-21T14:43:34;1.00;;;0.70;;
21012;SDS011;10664;53.582;9.712;2022-09-21T14:46:06;1.13;;;0.70;;
21012;SDS011;10664;53.582;9.712;2022-09-21T14:48:39;0.70;;;0.70;;
21012;SDS011;10664;53.582;9.712;2022-09-21T14:51:14;0.57;;;0.57;;
21012;SDS011;10664;53.582;9.712;2022-09-21T15:06:25;0.82;;;0.60;;
21012;SDS011;10664;53.582;9.712;2022-09-21T15:12:20;0.60;;;0.60;;
21012;SDS011;10664;53.582;9.712;2022-09-21T15:17:54;0.50;;;0.50;;
21012;SDS011;10664;53.582;9.712;2022-09-21T15:20:22;0.60;;;0.60;;
21012;SDS011;10664;53.582;9.712;2022-09-21T15:22:52;0.63;;;0.63;;
21012;SDS011;10664;53.582;9.712;2022-09-21T15:25:18;0.80;;;0.80;;
21012;SDS011;10664;53.582;9.712;2022-09-21T15:27:44;0.80;;;0.80;;
21012;SDS011;10664;53.582;9.712;2022-09-21T15:30:18;1.20;;;0.70;;
21012;SDS011;10664;53.582;9.712;2022-09-21T15:32:46;0.60;;;0.60;;
21012;SDS011;10664;53.582;9.712;2022-09-21T15:37:44;0.73;;;0.70;;
21012;SDS011;10664;53.582;9.712;2022-09-21T15:40:19;0.70;;;0.70;;
21012;SDS011;10664;53.582;9.712;2022-09-21T15:45:56;1.08;;;0.77;;
21012;SDS011;10664;53.582;9.712;2022-09-21T15:48:23;0.82;;;0.70;;
21012;SDS011;10664;53.582;9.712;2022-09-21T15:50:58;1.05;;;0.80;;
21012;SDS011;10664;53.582;9.712;2022-09-21T15:53:33;0.73;;;0.60;;
21012;SDS011;10664;53.582;9.712;2022-09-21T15:56:00;0.65;;;0.65;;
21012;SDS011;10664;53.582;9.712;2022-09-21T16:01:02;1.05;;;0.80;;
21012;SDS011;10664;53.582;9.712;2022-09-21T16:03:33;1.15;;;0.90;;
21012;SDS011;10664;53.582;9.712;2022-09-21T16:05:59;1.38;;;0.70;;
21012;SDS011;10664;53.582;9.712;2022-09-21T16:08:41;0.70;;;0.70;;
21012;SDS011;10664;53.582;9.712;2022-09-21T16:13:57;0.73;;;0.60;;
21012;SDS011;10664;53.582;9.712;2022-09-21T16:19:39;1.00;;;0.80;;
21012;SDS011;10664;53.582;9.712;2022-09-21T16:22:09;0.88;;;0.70;;
21012;SDS011;10664;53.582;9.712;2022-09-21T16:24:36;0.75;;;0.75;;
21012;SDS011;10664;53.582;9.712;2022-09-21T16:27:14;0.80;;;0.70;;
21012;SDS011;10664;53.582;9.712;2022-09-21T16:29:41;1.15;;;0.90;;
21012;SDS011;10664;53.582;9.712;2022-09-21T16:34:43;0.80;;;0.80;;
21012;SDS011;10664;53.582;9.712;2022-09-21T16:39:52;0.80;;;0.80;;
21012;SDS011;10664;53.582;9.712;2022-09-21T16:42:18;0.77;;;0.77;;
21012;SDS011;10664;53.582;9.712;2022-09-21T16:44:45;0.80;;;0.80;;
21012;SDS011;10664;53.582;9.712;2022-09-21T16:47:12;0.75;;;0.75;;
21012;SDS011;10664;53.582;9.712;2022-09-21T16:49:39;0.80;;;0.75;;
21012;SDS011;10664;53.582;9.712;2022-09-21T16:52:05;0.77;;;0.77;;
21012;SDS011;10664;53.582;9.712;2022-09-21T16:54:31;0.52;;;0.52;;
21012;SDS011;10664;53.582;9.712;2022-09-21T16:56:59;0.80;;;0.77;;
21012;SDS011;10664;53.582;9.712;2022-09-21T16:59:25;0.90;;;0.90;;
21012;SDS011;10664;53.582;9.712;2022-09-21T17:01:53;1.02;;;1.00;;
21012;SDS011;10664;53.582;9.712;2022-09-21T17:04:20;0.80;;;0.80;;
21012;SDS011;10664;53.582;9.712;2022-09-21T17:06:47;1.05;;;0.98;;
21012;SDS011;10664;53.582;9.712;2022-09-21T17:09:15;1.15;;;0.90;;
21012;SDS011;10664;53.582;9.712;2022-09-21T17:11:41;0.98;;;0.93;;
21012;SDS011;10664;53.582;9.712;2022-09-21T17:14:09;0.90;;;0.80;;
21012;SDS011;10664;53.582;9.712;2022-09-21T17:16:39;0.70;;;0.70;;
21012;SDS011;10664;53.582;9.712;2022-09-21T17:19:07;0.80;;;0.80;;
21012;SDS011;10664;53.582;9.712;2022-09-21T17:21:33;1.35;;;1.00;;
21012;SDS011;10664;53.582;9.712;2022-09-21T17:23:59;3.05;;;1.20;;
21012;SDS011;10664;53.582;9.712;2022-09-21T17:26:25;1.15;;;1.05;;
21012;SDS011;10664;53.582;9.712;2022-09-21T17:28:52;1.42;;;1.33;;
21012;SDS011;10664;53.582;9.712;2022-09-21T17:31:18;1.65;;;1.40;;
21012;SDS011;10664;53.582;9.712;2022-09-21T17:33:47;1.58;;;1.42;;
21012;SDS011;10664;53.582;9.712;2022-09-21T17:36:14;1.92;;;1.73;;